Airport View

Enter AWOS ICAO identifier for current METAR.

ex. KFNL

KIXA 181250Z AUTO 00000KT 10SM BKN110 00/M02 A3058 RMK AO2

18 Jan 2020 12:49

Frequency: 119.975

Phone: 252-583-3446

Other Area AWOS: KASJ - KEMV - KETC - KLVL

TAF KRWI 181139Z 1812/1912 00000KT P6SM OVC120 FM181800 18008KT P6SM BKN030 OVC110 FM182100 20010G16KT P6SM -RA OVC015 FM190000 21011G18KT 4SM -RA OVC009 WS020/21048KT FM190700 22009G16KT 6SM BR OVC008 WS020/25048KT FM191000 27009KT P6SM SCT015 SCT180